createdAt,value
2022-10-16T00:00:24.339Z,15.62
2022-10-16T00:01:24.403Z,15.62
2022-10-16T00:02:24.424Z,15.64
2022-10-16T00:03:26.764Z,15.65
2022-10-16T00:04:24.360Z,15.67
2022-10-16T00:05:24.361Z,15.58
2022-10-16T00:06:24.365Z,15.55
2022-10-16T00:07:24.860Z,15.62
2022-10-16T00:08:24.307Z,15.58
2022-10-16T00:09:24.319Z,15.64
2022-10-16T00:10:24.279Z,15.61
2022-10-16T00:11:24.302Z,15.67
2022-10-16T00:12:24.698Z,15.65
2022-10-16T00:13:24.272Z,15.59
2022-10-16T00:14:24.285Z,15.75
2022-10-16T00:15:24.265Z,15.64
2022-10-16T00:16:24.254Z,15.73
2022-10-16T00:17:24.244Z,15.82
2022-10-16T00:18:24.252Z,15.90
2022-10-16T00:19:24.274Z,15.90
2022-10-16T00:20:24.206Z,16.02
2022-10-16T00:21:24.231Z,16.12
2022-10-16T00:22:24.522Z,16.12
2022-10-16T00:23:24.333Z,16.24
2022-10-16T00:24:24.232Z,16.21
2022-10-16T00:25:24.165Z,16.35
2022-10-16T00:26:24.253Z,16.39
2022-10-16T00:27:24.299Z,16.39
2022-10-16T00:28:24.195Z,16.38
2022-10-16T00:29:24.175Z,16.32
2022-10-16T00:30:24.179Z,16.24
2022-10-16T00:31:24.158Z,16.21
2022-10-16T00:32:24.451Z,16.13
2022-10-16T00:33:24.186Z,16.10
2022-10-16T00:34:24.154Z,16.02
2022-10-16T00:35:24.150Z,15.88
2022-10-16T00:36:24.139Z,15.82
2022-10-16T00:37:24.353Z,15.68
2022-10-16T00:38:24.126Z,15.68
2022-10-16T00:39:24.153Z,15.67
2022-10-16T00:40:24.278Z,15.58
2022-10-16T00:41:24.127Z,15.55
2022-10-16T00:42:24.733Z,15.47
2022-10-16T00:43:24.096Z,15.51
2022-10-16T00:44:24.048Z,15.46
2022-10-16T00:45:24.073Z,15.43
2022-10-16T00:46:24.059Z,15.43
2022-10-16T00:47:24.066Z,15.35
2022-10-16T00:48:24.024Z,15.28
2022-10-16T00:49:24.035Z,15.31
2022-10-16T00:50:24.025Z,15.24
2022-10-16T00:51:24.037Z,15.21
2022-10-16T00:52:24.406Z,15.19
2022-10-16T00:53:24.047Z,15.11
2022-10-16T00:54:23.988Z,15.18
2022-10-16T00:55:23.983Z,15.04
2022-10-16T00:56:24.004Z,15.07
2022-10-16T00:57:24.003Z,15.02
2022-10-16T00:58:24.173Z,15.06
2022-10-16T00:59:23.993Z,14.99
2022-10-16T01:00:24.166Z,15.04
2022-10-16T01:01:24.061Z,15.02
2022-10-16T01:02:24.296Z,14.97
2022-10-16T01:03:23.965Z,14.99
2022-10-16T01:04:23.945Z,14.92
2022-10-16T01:05:23.924Z,14.99
2022-10-16T01:07:24.200Z,14.99
2022-10-16T01:08:23.903Z,15.10
2022-10-16T01:09:23.904Z,15.18
2022-10-16T01:10:23.882Z,15.24
2022-10-16T01:11:23.922Z,15.21
2022-10-16T01:12:23.905Z,15.28
2022-10-16T01:13:23.899Z,15.27
2022-10-16T01:14:23.889Z,15.19
2022-10-16T01:15:23.865Z,15.17
2022-10-16T01:16:23.840Z,15.17
2022-10-16T01:17:24.170Z,15.10
2022-10-16T01:18:23.862Z,15.15
2022-10-16T01:19:23.862Z,15.09
2022-10-16T01:20:23.837Z,15.07
2022-10-16T01:21:23.855Z,15.04
2022-10-16T01:22:23.841Z,15.03
2022-10-16T01:23:23.913Z,14.92
2022-10-16T01:24:23.844Z,15.00
2022-10-16T01:25:23.822Z,14.97
2022-10-16T01:26:23.850Z,15.03
2022-10-16T01:27:24.136Z,14.88
2022-10-16T01:28:23.856Z,14.92
2022-10-16T01:29:23.760Z,14.92
2022-10-16T01:30:23.778Z,14.97
2022-10-16T01:31:23.775Z,14.97
2022-10-16T01:32:23.783Z,14.94
2022-10-16T01:33:23.757Z,14.89
2022-10-16T01:34:23.739Z,14.92
2022-10-16T01:35:23.758Z,14.86
2022-10-16T01:36:23.744Z,14.88
2022-10-16T01:37:23.999Z,14.92
2022-10-16T01:38:23.734Z,14.89
2022-10-16T01:39:23.709Z,14.81
2022-10-16T01:40:23.736Z,14.84
2022-10-16T01:41:23.887Z,14.88
2022-10-16T01:42:23.717Z,14.85
2022-10-16T01:43:23.707Z,14.77
2022-10-16T01:44:23.892Z,14.82
2022-10-16T01:45:23.643Z,14.84
2022-10-16T01:46:23.633Z,14.77
2022-10-16T01:47:24.045Z,14.70
2022-10-16T01:48:23.679Z,14.77
2022-10-16T01:49:23.668Z,14.85
2022-10-16T01:50:23.617Z,14.78
2022-10-16T01:51:23.610Z,14.92
2022-10-16T01:52:23.972Z,14.97
2022-10-16T01:53:23.609Z,14.94
2022-10-16T01:54:23.591Z,15.04
2022-10-16T01:55:23.636Z,15.00
2022-10-16T01:56:23.583Z,15.17
2022-10-16T01:57:23.571Z,15.15
2022-10-16T01:58:23.698Z,15.10
2022-10-16T01:59:23.604Z,15.19
2022-10-16T02:00:23.554Z,15.21
2022-10-16T02:01:23.596Z,15.11
2022-10-16T02:02:23.680Z,15.19
2022-10-16T02:03:23.527Z,15.11
2022-10-16T02:04:23.747Z,15.09
2022-10-16T02:05:23.516Z,15.14
2022-10-16T02:06:23.527Z,15.04
2022-10-16T02:07:23.551Z,15.11
2022-10-16T02:08:23.523Z,15.04
2022-10-16T02:09:23.588Z,15.09
2022-10-16T02:10:23.525Z,15.07
2022-10-16T02:11:23.563Z,15.14
2022-10-16T02:12:23.771Z,15.10
2022-10-16T02:13:23.467Z,15.09
2022-10-16T02:14:23.586Z,15.18
2022-10-16T02:15:23.463Z,15.17
2022-10-16T02:16:23.504Z,15.19
2022-10-16T02:17:23.529Z,15.22
2022-10-16T02:18:23.454Z,15.25
2022-10-16T02:19:23.436Z,15.37
2022-10-16T02:20:23.494Z,15.29
2022-10-16T02:21:23.632Z,15.33
2022-10-16T02:22:23.686Z,15.29
2022-10-16T02:23:23.393Z,15.28
2022-10-16T02:24:23.442Z,15.31
2022-10-16T02:25:23.409Z,15.29
2022-10-16T02:26:23.409Z,15.33
2022-10-16T02:27:23.477Z,15.31
2022-10-16T02:28:23.458Z,15.40
2022-10-16T02:29:23.394Z,15.43
2022-10-16T02:30:23.549Z,15.43
2022-10-16T02:31:23.397Z,15.46
2022-10-16T02:32:23.654Z,15.43
2022-10-16T02:33:23.398Z,15.44
2022-10-16T02:34:23.342Z,15.47
2022-10-16T02:35:23.517Z,15.46
2022-10-16T02:36:23.376Z,15.40
2022-10-16T02:37:23.344Z,15.51
2022-10-16T02:38:23.376Z,15.44
2022-10-16T02:39:23.309Z,15.47
2022-10-16T02:40:25.324Z,15.40
2022-10-16T02:41:23.298Z,15.43
2022-10-16T02:42:23.546Z,15.42
2022-10-16T02:43:23.356Z,15.42
2022-10-16T02:44:23.256Z,15.29
2022-10-16T02:45:23.268Z,15.29
2022-10-16T02:46:23.290Z,15.33
2022-10-16T02:47:23.254Z,15.37
2022-10-16T02:48:23.289Z,15.31
2022-10-16T02:49:23.356Z,15.44
2022-10-16T02:50:23.230Z,15.39
2022-10-16T02:51:23.214Z,15.44
2022-10-16T02:52:23.711Z,15.52
2022-10-16T02:53:23.218Z,15.47
2022-10-16T02:54:23.190Z,15.49
2022-10-16T02:55:23.244Z,15.51
2022-10-16T02:56:23.246Z,15.49
2022-10-16T02:57:23.323Z,15.47
2022-10-16T02:58:23.258Z,15.54
2022-10-16T02:59:23.208Z,15.54
2022-10-16T03:00:23.359Z,15.52
2022-10-16T03:01:23.218Z,15.43
2022-10-16T03:02:23.144Z,15.42
2022-10-16T03:03:23.115Z,15.29
2022-10-16T03:04:23.146Z,15.33
2022-10-16T03:05:23.128Z,15.25
2022-10-16T03:06:23.120Z,15.31
2022-10-16T03:07:23.236Z,15.19
2022-10-16T03:08:23.155Z,15.22
2022-10-16T03:09:23.130Z,15.18
2022-10-16T03:10:23.082Z,15.09
2022-10-16T03:11:23.119Z,15.15
2022-10-16T03:12:23.087Z,15.11
2022-10-16T03:13:23.276Z,15.06
2022-10-16T03:14:23.144Z,15.03
2022-10-16T03:15:23.274Z,15.11
2022-10-16T03:16:23.056Z,15.07
2022-10-16T03:17:23.322Z,15.10
2022-10-16T03:18:23.030Z,15.10
2022-10-16T03:19:23.074Z,15.18
2022-10-16T03:20:23.011Z,15.25
2022-10-16T03:21:23.014Z,15.25
2022-10-16T03:22:23.005Z,15.40
2022-10-16T03:23:23.072Z,15.42
2022-10-16T03:24:23.124Z,15.44
2022-10-16T03:25:22.945Z,15.46
2022-10-16T03:26:22.944Z,15.51
2022-10-16T03:27:22.991Z,15.52
2022-10-16T03:28:23.009Z,15.54
2022-10-16T03:29:22.951Z,15.46
2022-10-16T03:30:22.937Z,15.61
2022-10-16T03:31:22.937Z,15.62
2022-10-16T03:32:22.957Z,15.61
2022-10-16T03:33:22.938Z,15.64
2022-10-16T03:34:22.892Z,15.70
2022-10-16T03:35:22.907Z,15.61
2022-10-16T03:36:22.918Z,15.65
2022-10-16T03:37:23.003Z,15.72
2022-10-16T03:38:22.937Z,15.72
2022-10-16T03:39:22.920Z,15.73
2022-10-16T03:40:22.886Z,15.77
2022-10-16T03:41:22.875Z,15.72
2022-10-16T03:42:22.992Z,15.65
2022-10-16T03:43:22.853Z,15.61
2022-10-16T03:44:22.892Z,15.76
2022-10-16T03:45:22.850Z,15.61
2022-10-16T03:46:22.901Z,15.62
2022-10-16T03:47:23.138Z,15.65
2022-10-16T03:48:22.851Z,15.68
2022-10-16T03:49:22.879Z,15.73
2022-10-16T03:50:22.782Z,15.72
2022-10-16T03:51:22.816Z,15.58
2022-10-16T03:52:22.830Z,15.58
2022-10-16T03:53:22.782Z,15.49
2022-10-16T03:54:22.780Z,15.54
2022-10-16T03:55:22.879Z,15.51
2022-10-16T03:56:22.750Z,15.52
2022-10-16T03:57:23.024Z,15.55
2022-10-16T03:58:22.736Z,15.54
2022-10-16T03:59:22.771Z,15.54
2022-10-16T04:00:22.786Z,15.51
2022-10-16T04:01:22.790Z,15.49
2022-10-16T04:02:22.762Z,15.51
2022-10-16T04:03:22.839Z,15.49
2022-10-16T04:04:22.779Z,15.54
2022-10-16T04:05:22.779Z,15.44
2022-10-16T04:06:22.761Z,15.40
2022-10-16T04:07:23.032Z,15.40
2022-10-16T04:08:22.771Z,15.40
2022-10-16T04:09:22.802Z,15.35
2022-10-16T04:10:22.707Z,15.37
2022-10-16T04:11:22.711Z,15.27
2022-10-16T04:12:22.761Z,15.31
2022-10-16T04:13:22.670Z,15.31
2022-10-16T04:14:22.657Z,15.35
2022-10-16T04:15:22.634Z,15.27
2022-10-16T04:16:22.707Z,15.24
2022-10-16T04:17:22.640Z,15.22
2022-10-16T04:18:22.674Z,15.25
2022-10-16T04:19:22.879Z,15.21
2022-10-16T04:20:22.628Z,15.24
2022-10-16T04:21:22.591Z,15.19
2022-10-16T04:22:22.693Z,15.25
2022-10-16T04:23:22.608Z,15.19
2022-10-16T04:24:22.558Z,15.21
2022-10-16T04:25:22.577Z,15.25
2022-10-16T04:26:22.554Z,15.25
2022-10-16T04:27:22.563Z,15.22
2022-10-16T04:28:22.588Z,15.33
2022-10-16T04:29:22.571Z,15.36
2022-10-16T04:30:22.547Z,15.39
2022-10-16T04:31:22.938Z,15.42
2022-10-16T04:32:22.734Z,15.44
2022-10-16T04:33:22.512Z,15.44
2022-10-16T04:34:22.650Z,15.47
2022-10-16T04:35:22.533Z,15.61
2022-10-16T04:36:24.379Z,15.62
2022-10-16T04:37:22.502Z,15.59
2022-10-16T04:38:22.696Z,15.57
2022-10-16T04:39:22.680Z,15.61
2022-10-16T04:40:22.481Z,15.57
2022-10-16T04:41:22.466Z,15.54
2022-10-16T04:42:22.473Z,15.57
2022-10-16T04:43:22.518Z,15.61
2022-10-16T04:44:22.489Z,15.57
2022-10-16T04:45:22.430Z,15.67
2022-10-16T04:46:22.402Z,15.65
2022-10-16T04:47:22.408Z,15.61
2022-10-16T04:48:22.610Z,15.68
2022-10-16T04:49:22.618Z,15.72
2022-10-16T04:50:22.536Z,15.57
2022-10-16T04:51:22.400Z,15.70
2022-10-16T04:52:22.423Z,15.68
2022-10-16T04:53:22.378Z,15.67
2022-10-16T04:54:22.360Z,15.70
2022-10-16T04:55:22.525Z,15.58
2022-10-16T04:56:22.335Z,15.62
2022-10-16T04:57:22.344Z,15.59
2022-10-16T04:58:22.357Z,15.49
2022-10-16T04:59:22.327Z,15.51
2022-10-16T05:00:22.487Z,15.54
2022-10-16T05:01:22.329Z,15.47
2022-10-16T05:02:22.392Z,15.40
2022-10-16T05:03:22.508Z,15.49
2022-10-16T05:04:22.300Z,15.43
2022-10-16T05:05:22.462Z,15.46
2022-10-16T05:06:22.326Z,15.42
2022-10-16T05:07:22.312Z,15.44
2022-10-16T05:08:22.275Z,15.44
2022-10-16T05:09:22.281Z,15.29
2022-10-16T05:10:22.422Z,15.39
2022-10-16T05:11:22.238Z,15.29
2022-10-16T05:12:22.248Z,15.29
2022-10-16T05:13:22.243Z,15.33
2022-10-16T05:14:22.253Z,15.31
2022-10-16T05:15:22.309Z,15.29
2022-10-16T05:16:22.215Z,15.29
2022-10-16T05:17:22.194Z,15.31
2022-10-16T05:18:22.201Z,15.21
2022-10-16T05:19:27.222Z,15.33
2022-10-16T05:20:22.353Z,15.24
2022-10-16T05:21:22.182Z,15.31
2022-10-16T05:22:22.203Z,15.25
2022-10-16T05:23:22.179Z,15.17
2022-10-16T05:24:22.189Z,15.24
2022-10-16T05:25:22.318Z,15.24
2022-10-16T05:26:22.186Z,15.28
2022-10-16T05:27:22.159Z,15.22
2022-10-16T05:28:22.197Z,15.21
2022-10-16T05:29:22.147Z,15.29
2022-10-16T05:30:22.284Z,15.31
2022-10-16T05:31:22.116Z,15.21
2022-10-16T05:32:22.105Z,15.21
2022-10-16T05:33:22.096Z,15.27
2022-10-16T05:34:22.083Z,15.18
2022-10-16T05:35:22.255Z,15.18
2022-10-16T05:36:22.085Z,15.18
2022-10-16T05:37:22.255Z,15.15
2022-10-16T05:38:22.055Z,15.15
2022-10-16T05:39:22.084Z,15.10
2022-10-16T05:40:22.402Z,15.15
2022-10-16T05:41:22.066Z,15.15
2022-10-16T05:42:22.064Z,15.18
2022-10-16T05:43:22.045Z,15.10
2022-10-16T05:44:22.139Z,15.10
2022-10-16T05:45:22.178Z,15.15
2022-10-16T05:46:22.016Z,15.07
2022-10-16T05:47:22.003Z,15.15
2022-10-16T05:48:22.028Z,15.19
2022-10-16T05:49:22.015Z,15.25
2022-10-16T05:50:22.080Z,15.19
2022-10-16T05:51:21.963Z,15.24
2022-10-16T05:52:21.976Z,15.18
2022-10-16T05:53:21.977Z,15.29
2022-10-16T05:54:21.943Z,15.36
2022-10-16T05:55:22.145Z,15.37
2022-10-16T05:56:21.951Z,15.51
2022-10-16T05:57:22.136Z,15.49
2022-10-16T05:58:21.964Z,15.44
2022-10-16T05:59:21.954Z,15.61
2022-10-16T06:00:22.052Z,15.58
2022-10-16T06:01:22.077Z,15.65
2022-10-16T06:02:21.916Z,15.65
2022-10-16T06:03:21.913Z,15.68
2022-10-16T06:04:21.919Z,15.67
2022-10-16T06:05:22.046Z,15.67
2022-10-16T06:06:21.854Z,15.72
2022-10-16T06:07:21.889Z,15.82
2022-10-16T06:08:21.866Z,15.80
2022-10-16T06:09:22.069Z,15.91
2022-10-16T06:10:22.012Z,15.88
2022-10-16T06:11:22.063Z,16.01
2022-10-16T06:12:21.866Z,16.01
2022-10-16T06:13:21.814Z,15.95
2022-10-16T06:14:21.826Z,15.97
2022-10-16T06:15:21.983Z,15.92
2022-10-16T06:16:21.808Z,15.95
2022-10-16T06:17:21.779Z,15.95
2022-10-16T06:18:21.800Z,15.90
2022-10-16T06:19:21.861Z,15.95
2022-10-16T06:20:22.030Z,15.92
2022-10-16T06:21:21.850Z,15.98
2022-10-16T06:22:21.807Z,16.00
2022-10-16T06:23:21.761Z,16.01
2022-10-16T06:24:21.814Z,16.05
2022-10-16T06:25:21.928Z,16.02
2022-10-16T06:26:21.798Z,16.00
2022-10-16T06:27:21.754Z,16.09
2022-10-16T06:28:21.794Z,16.15
2022-10-16T06:29:21.747Z,16.16
2022-10-16T06:30:21.936Z,16.20
2022-10-16T06:31:21.735Z,16.28
2022-10-16T06:32:21.741Z,16.32
2022-10-16T06:33:21.709Z,16.39
2022-10-16T06:34:21.690Z,16.39
2022-10-16T06:35:21.881Z,16.49
2022-10-16T06:36:21.677Z,16.50
2022-10-16T06:37:21.693Z,16.54
2022-10-16T06:38:21.706Z,16.56
2022-10-16T06:39:21.725Z,16.65
2022-10-16T06:40:22.028Z,16.61
2022-10-16T06:41:21.662Z,16.72
2022-10-16T06:42:21.648Z,16.75
2022-10-16T06:43:21.718Z,16.75
2022-10-16T06:44:21.646Z,16.78
2022-10-16T06:45:21.761Z,16.79
2022-10-16T06:46:21.599Z,16.79
2022-10-16T06:47:21.602Z,16.79
2022-10-16T06:48:21.583Z,16.87
2022-10-16T06:49:21.597Z,16.83
2022-10-16T06:50:21.716Z,16.86
2022-10-16T06:51:21.608Z,16.83
2022-10-16T06:52:21.595Z,16.79
2022-10-16T06:53:21.566Z,16.89
2022-10-16T06:54:21.566Z,17.04
2022-10-16T06:55:21.710Z,17.06
2022-10-16T06:56:21.552Z,17.12
2022-10-16T06:57:21.543Z,17.22
2022-10-16T06:58:21.526Z,17.38
2022-10-16T06:59:21.547Z,17.38
2022-10-16T07:00:21.768Z,17.44
2022-10-16T07:01:21.528Z,17.44
2022-10-16T07:02:21.525Z,17.57
2022-10-16T07:03:21.714Z,17.64
2022-10-16T07:04:21.534Z,17.57
2022-10-16T07:05:21.632Z,17.89
2022-10-16T07:06:21.489Z,18.13
2022-10-16T07:07:21.479Z,18.38
2022-10-16T07:08:21.498Z,18.59
2022-10-16T07:09:21.516Z,18.99
2022-10-16T07:10:21.623Z,19.55
2022-10-16T07:11:21.466Z,19.55
2022-10-16T07:12:21.448Z,19.45
2022-10-16T07:13:21.449Z,19.19
2022-10-16T07:14:21.463Z,19.02
2022-10-16T07:15:21.611Z,18.78
2022-10-16T07:16:21.497Z,18.63
2022-10-16T07:17:21.460Z,18.50
2022-10-16T07:18:21.467Z,18.40
2022-10-16T07:19:21.409Z,18.28
2022-10-16T07:20:21.584Z,18.18
2022-10-16T07:21:21.653Z,18.10
2022-10-16T07:22:21.884Z,18.13
2022-10-16T07:23:21.429Z,18.01
2022-10-16T07:24:21.390Z,18.10
2022-10-16T07:25:21.531Z,18.16
2022-10-16T07:26:21.374Z,18.22
2022-10-16T07:27:21.387Z,18.40
2022-10-16T07:28:21.428Z,18.50
2022-10-16T07:29:21.388Z,18.65
2022-10-16T07:30:21.515Z,18.66
2022-10-16T07:31:21.364Z,18.62
2022-10-16T07:32:21.364Z,18.65
2022-10-16T07:33:21.351Z,18.60
2022-10-16T07:34:21.341Z,18.53
2022-10-16T07:35:21.480Z,18.58
2022-10-16T07:36:21.335Z,18.45
2022-10-16T07:37:21.521Z,18.37
2022-10-16T07:38:21.412Z,18.38
2022-10-16T07:39:21.304Z,18.40
2022-10-16T07:40:21.691Z,18.34
2022-10-16T07:41:21.342Z,18.37
2022-10-16T07:42:21.311Z,18.40
2022-10-16T07:43:21.333Z,18.29
2022-10-16T07:44:21.285Z,18.19
2022-10-16T07:45:21.442Z,18.19
2022-10-16T07:46:21.481Z,18.13
2022-10-16T07:47:21.314Z,18.22
2022-10-16T07:48:21.306Z,18.20
2022-10-16T07:49:21.254Z,18.22
2022-10-16T07:50:21.418Z,18.23
2022-10-16T07:51:21.280Z,18.15
2022-10-16T07:52:21.255Z,18.19
2022-10-16T07:53:24.811Z,18.11
2022-10-16T07:54:21.234Z,18.29
2022-10-16T07:55:21.375Z,18.23
2022-10-16T07:56:21.240Z,18.29
2022-10-16T07:57:21.229Z,18.26
2022-10-16T07:58:21.215Z,18.29
2022-10-16T07:59:21.218Z,18.31
2022-10-16T08:00:21.359Z,18.37
2022-10-16T08:01:21.378Z,18.22
2022-10-16T08:02:21.239Z,18.16
2022-10-16T08:03:21.228Z,18.23
2022-10-16T08:04:21.195Z,18.22
2022-10-16T08:05:21.372Z,18.20
2022-10-16T08:06:25.020Z,18.20
2022-10-16T08:07:21.365Z,18.18
2022-10-16T08:08:21.204Z,18.26
2022-10-16T08:09:21.240Z,18.20
2022-10-16T08:10:21.351Z,18.13
2022-10-16T08:11:21.388Z,18.19
2022-10-16T08:12:21.163Z,18.15
2022-10-16T08:13:21.326Z,18.18
2022-10-16T08:14:21.144Z,18.26
2022-10-16T08:15:21.280Z,18.16
2022-10-16T08:16:21.111Z,18.25
2022-10-16T08:17:21.155Z,18.28
2022-10-16T08:18:21.112Z,18.35
2022-10-16T08:19:21.133Z,18.35
2022-10-16T08:20:21.313Z,18.29
2022-10-16T08:21:21.861Z,18.31
2022-10-16T08:22:21.137Z,18.38
2022-10-16T08:23:21.083Z,18.33
2022-10-16T08:24:21.084Z,18.40
2022-10-16T08:25:21.335Z,18.38
2022-10-16T08:26:21.105Z,18.40
2022-10-16T08:27:21.044Z,18.37
2022-10-16T08:28:21.160Z,18.45
2022-10-16T08:29:21.061Z,18.45
2022-10-16T08:30:21.540Z,18.41
2022-10-16T08:31:21.286Z,18.44
2022-10-16T08:32:24.005Z,18.38
2022-10-16T08:33:21.026Z,18.47
2022-10-16T08:34:21.038Z,18.41
2022-10-16T08:35:21.175Z,18.41
2022-10-16T08:36:21.014Z,18.43
2022-10-16T08:37:20.997Z,18.41
2022-10-16T08:38:21.023Z,18.44
2022-10-16T08:39:21.002Z,18.44
2022-10-16T08:40:21.198Z,18.49
2022-10-16T08:41:20.984Z,18.47
2022-10-16T08:42:20.980Z,18.44
2022-10-16T08:43:20.976Z,18.49
2022-10-16T08:44:20.993Z,18.45
2022-10-16T08:45:21.109Z,18.47
2022-10-16T08:46:21.026Z,18.38
2022-10-16T08:47:20.956Z,18.52
2022-10-16T08:48:20.988Z,18.52
2022-10-16T08:49:21.005Z,18.47
2022-10-16T08:50:21.076Z,18.63
2022-10-16T08:51:20.943Z,18.71
2022-10-16T08:52:20.912Z,18.77
2022-10-16T08:53:20.917Z,18.83
2022-10-16T08:54:20.931Z,18.81
2022-10-16T08:55:21.041Z,18.84
2022-10-16T08:56:20.904Z,18.89
2022-10-16T08:57:23.082Z,18.92
2022-10-16T08:58:20.878Z,18.89
2022-10-16T08:59:20.898Z,19.00
2022-10-16T09:00:21.037Z,18.99
2022-10-16T09:01:20.970Z,19.02
2022-10-16T09:02:20.895Z,19.08
2022-10-16T09:03:20.878Z,19.15
2022-10-16T09:04:20.879Z,19.37
2022-10-16T09:05:20.999Z,19.69
2022-10-16T09:06:20.861Z,19.99
2022-10-16T09:07:21.109Z,20.36
2022-10-16T09:08:20.844Z,20.60
2022-10-16T09:09:20.883Z,20.69
2022-10-16T09:10:20.968Z,20.75
2022-10-16T09:11:21.097Z,20.93
2022-10-16T09:12:20.843Z,21.03
2022-10-16T09:13:20.865Z,20.82
2022-10-16T09:14:20.814Z,20.58
2022-10-16T09:15:20.944Z,20.43
2022-10-16T09:16:20.827Z,20.26
2022-10-16T09:17:20.826Z,20.29
2022-10-16T09:18:20.801Z,20.24
2022-10-16T09:19:20.772Z,20.06
2022-10-16T09:20:20.960Z,20.11
2022-10-16T09:21:20.861Z,20.09
2022-10-16T09:22:20.814Z,19.96
2022-10-16T09:23:20.795Z,19.99
2022-10-16T09:24:23.349Z,20.00
2022-10-16T09:25:20.847Z,19.99
2022-10-16T09:26:20.885Z,19.91
2022-10-16T09:27:20.778Z,19.91
2022-10-16T09:28:20.866Z,19.88
2022-10-16T09:29:20.754Z,19.84
2022-10-16T09:30:20.906Z,19.84
2022-10-16T09:31:20.729Z,19.82
2022-10-16T09:32:20.733Z,19.88
2022-10-16T09:33:20.726Z,19.77
2022-10-16T09:34:20.736Z,19.82
2022-10-16T09:35:20.961Z,19.82
2022-10-16T09:36:20.779Z,20.02
2022-10-16T09:37:20.748Z,20.07
2022-10-16T09:38:20.707Z,20.07
2022-10-16T09:39:20.740Z,20.10
2022-10-16T09:40:20.830Z,20.22
2022-10-16T09:41:20.724Z,20.25
2022-10-16T09:42:20.748Z,20.21
2022-10-16T09:43:20.690Z,20.26
2022-10-16T09:44:20.677Z,20.28
2022-10-16T09:45:20.800Z,20.24
2022-10-16T09:46:20.680Z,20.31
2022-10-16T09:47:20.664Z,20.26
2022-10-16T09:48:20.670Z,20.24
2022-10-16T09:49:20.683Z,20.34
2022-10-16T09:50:20.983Z,20.40
2022-10-16T09:51:20.647Z,20.41
2022-10-16T09:52:20.637Z,20.47
2022-10-16T09:53:20.669Z,20.56
2022-10-16T09:54:20.614Z,20.56
2022-10-16T09:55:21.004Z,20.44
2022-10-16T09:56:20.628Z,20.41
2022-10-16T09:57:20.611Z,20.43
2022-10-16T09:58:20.608Z,20.40
2022-10-16T09:59:20.612Z,20.40
2022-10-16T10:00:20.713Z,20.37
2022-10-16T10:01:20.588Z,20.34
2022-10-16T10:02:20.577Z,20.32
2022-10-16T10:03:20.618Z,20.36
2022-10-16T10:04:20.595Z,20.37
2022-10-16T10:05:20.742Z,20.31
2022-10-16T10:06:20.577Z,20.34
2022-10-16T10:07:20.574Z,20.31
2022-10-16T10:08:20.582Z,20.29
2022-10-16T10:09:20.574Z,20.29
2022-10-16T10:10:20.726Z,20.18
2022-10-16T10:11:20.588Z,20.21
2022-10-16T10:12:23.030Z,20.16
2022-10-16T10:13:20.540Z,20.19
2022-10-16T10:14:20.557Z,20.16
2022-10-16T10:15:20.702Z,20.31
2022-10-16T10:16:20.532Z,20.22
2022-10-16T10:17:20.519Z,20.24
2022-10-16T10:18:20.521Z,20.28
2022-10-16T10:19:20.524Z,20.26
2022-10-16T10:20:20.699Z,20.29
2022-10-16T10:21:20.504Z,20.26
2022-10-16T10:22:20.722Z,20.31
2022-10-16T10:23:20.494Z,20.37
2022-10-16T10:24:20.742Z,20.36
2022-10-16T10:25:20.623Z,20.36
2022-10-16T10:26:20.489Z,20.47
2022-10-16T10:27:20.512Z,20.40
2022-10-16T10:28:20.503Z,20.55
2022-10-16T10:29:20.483Z,20.59
2022-10-16T10:30:20.622Z,20.75
2022-10-16T10:31:20.464Z,20.77
2022-10-16T10:32:20.477Z,20.80
2022-10-16T10:33:20.651Z,20.93
2022-10-16T10:34:20.485Z,21.06
2022-10-16T10:35:20.588Z,21.22
2022-10-16T10:36:20.431Z,21.25
2022-10-16T10:37:20.448Z,21.48
2022-10-16T10:38:20.450Z,21.40
2022-10-16T10:40:20.547Z,21.64
2022-10-16T10:41:20.451Z,21.55
2022-10-16T10:42:20.461Z,21.70
2022-10-16T10:43:20.449Z,21.54
2022-10-16T10:44:20.425Z,21.60
2022-10-16T10:45:20.629Z,21.58
2022-10-16T10:46:20.424Z,21.66
2022-10-16T10:47:20.623Z,21.58
2022-10-16T10:48:20.400Z,21.57
2022-10-16T10:49:21.237Z,21.54
2022-10-16T10:50:20.389Z,21.57
2022-10-16T10:51:20.467Z,21.52
2022-10-16T10:52:20.422Z,21.40
2022-10-16T10:53:20.364Z,21.32
2022-10-16T10:54:20.465Z,21.36
2022-10-16T10:55:20.342Z,21.32
2022-10-16T10:56:20.362Z,21.27
2022-10-16T10:57:20.346Z,21.21
2022-10-16T10:58:20.365Z,21.20
2022-10-16T10:59:20.383Z,21.05
2022-10-16T11:00:20.349Z,21.09
2022-10-16T11:01:20.373Z,21.02
2022-10-16T11:02:20.328Z,21.11
2022-10-16T11:03:20.316Z,21.05
2022-10-16T11:04:20.327Z,21.09
2022-10-16T11:05:20.329Z,21.12
2022-10-16T11:06:20.300Z,21.14
2022-10-16T11:07:20.322Z,21.15
2022-10-16T11:08:20.512Z,21.05
2022-10-16T11:09:20.315Z,21.07
2022-10-16T11:10:20.301Z,21.00
2022-10-16T11:11:20.289Z,20.96
2022-10-16T11:12:20.306Z,21.00
2022-10-16T11:13:20.323Z,20.93
2022-10-16T11:14:20.287Z,20.84
2022-10-16T11:15:20.469Z,20.88
2022-10-16T11:16:21.599Z,20.88
2022-10-16T11:17:20.277Z,20.80
2022-10-16T11:18:20.250Z,20.74
2022-10-16T11:19:20.283Z,20.84
2022-10-16T11:20:20.543Z,20.77
2022-10-16T11:21:20.255Z,20.65
2022-10-16T11:22:20.271Z,20.74
2022-10-16T11:23:20.284Z,20.70
2022-10-16T11:24:20.243Z,20.59
2022-10-16T11:25:20.372Z,20.56
2022-10-16T11:26:20.244Z,20.58
2022-10-16T11:27:20.228Z,20.62
2022-10-16T11:28:20.283Z,20.58
2022-10-16T11:29:20.216Z,20.58
2022-10-16T11:30:20.381Z,20.62
2022-10-16T11:31:20.254Z,20.60
2022-10-16T11:32:20.238Z,20.55
2022-10-16T11:33:20.197Z,20.58
2022-10-16T11:34:20.186Z,20.56
2022-10-16T11:35:20.341Z,20.55
2022-10-16T11:36:20.180Z,20.56
2022-10-16T11:37:20.202Z,20.59
2022-10-16T11:38:20.171Z,20.62
2022-10-16T11:39:20.186Z,20.62
2022-10-16T11:40:20.332Z,20.78
2022-10-16T11:41:20.162Z,20.77
2022-10-16T11:42:20.145Z,20.81
2022-10-16T11:43:20.171Z,20.90
2022-10-16T11:44:20.185Z,20.93
2022-10-16T11:45:20.313Z,21.00
2022-10-16T11:46:20.166Z,21.00
2022-10-16T11:48:20.169Z,21.11
2022-10-16T11:49:20.120Z,21.09
2022-10-16T11:50:20.287Z,21.09
2022-10-16T11:51:20.109Z,21.14
2022-10-16T11:52:20.102Z,21.17
2022-10-16T11:53:20.505Z,21.20
2022-10-16T11:54:20.106Z,21.24
2022-10-16T11:55:20.255Z,21.25
2022-10-16T11:56:20.124Z,21.30
2022-10-16T11:57:20.082Z,21.27
2022-10-16T11:58:20.080Z,21.29
2022-10-16T11:59:20.115Z,21.25
2022-10-16T12:00:20.231Z,21.30
2022-10-16T12:01:20.114Z,21.25
2022-10-16T12:02:20.479Z,21.27
2022-10-16T12:03:20.146Z,21.32
2022-10-16T12:04:20.048Z,21.29
2022-10-16T12:05:20.213Z,21.30
2022-10-16T12:06:20.159Z,21.33
2022-10-16T12:07:20.317Z,21.39
2022-10-16T12:08:20.025Z,21.48
2022-10-16T12:09:20.057Z,21.61
2022-10-16T12:10:25.068Z,21.67
2022-10-16T12:11:20.027Z,21.69
2022-10-16T12:12:20.245Z,21.67
2022-10-16T12:13:20.032Z,21.83
2022-10-16T12:14:20.018Z,21.91
2022-10-16T12:15:26.028Z,21.93
2022-10-16T12:16:20.012Z,21.99
2022-10-16T12:17:20.013Z,21.96
2022-10-16T12:18:20.016Z,22.02
2022-10-16T12:19:20.020Z,21.98
2022-10-16T12:20:20.139Z,22.06
2022-10-16T12:21:19.985Z,22.13
2022-10-16T12:22:19.967Z,22.15
2022-10-16T12:23:19.974Z,22.13
2022-10-16T12:24:19.996Z,22.13
2022-10-16T12:25:20.110Z,22.13
2022-10-16T12:26:19.984Z,22.14
2022-10-16T12:27:19.949Z,22.26
2022-10-16T12:28:20.041Z,22.26
2022-10-16T12:29:19.967Z,22.32
2022-10-16T12:30:20.091Z,22.29
2022-10-16T12:31:19.980Z,22.25
2022-10-16T12:32:41.936Z,22.25
2022-10-16T12:33:19.926Z,22.33
2022-10-16T12:34:20.136Z,22.20
2022-10-16T12:35:20.050Z,22.39
2022-10-16T12:36:23.033Z,22.25
2022-10-16T12:37:19.913Z,22.17
2022-10-16T12:38:19.919Z,22.08
2022-10-16T12:39:19.911Z,22.00
2022-10-16T12:40:20.053Z,21.89
2022-10-16T12:41:19.939Z,21.85
2022-10-16T12:42:19.904Z,21.85
2022-10-16T12:43:19.897Z,21.76
2022-10-16T12:44:19.889Z,21.70
2022-10-16T12:45:19.985Z,21.70
2022-10-16T12:46:20.140Z,21.64
2022-10-16T12:47:19.913Z,21.57
2022-10-16T12:48:20.075Z,21.52
2022-10-16T12:49:19.912Z,21.51
2022-10-16T12:50:20.016Z,21.57
2022-10-16T12:51:19.898Z,21.52
2022-10-16T12:52:19.886Z,21.40
2022-10-16T12:53:19.858Z,21.50
2022-10-16T12:54:19.856Z,21.51
2022-10-16T12:55:20.012Z,21.48